createdAt,value
2022-08-29T00:00:31.492Z,1.65
2022-08-29T00:03:00.255Z,1.50
2022-08-29T00:05:31.475Z,1.63
2022-08-29T00:07:59.713Z,1.30
2022-08-29T00:10:27.753Z,1.50
2022-08-29T00:12:55.132Z,1.80
2022-08-29T00:15:25.385Z,1.48
2022-08-29T00:17:52.453Z,1.60
2022-08-29T00:20:30.193Z,1.75
2022-08-29T00:23:03.068Z,1.63
2022-08-29T00:25:31.105Z,1.40
2022-08-29T00:27:58.158Z,1.25
2022-08-29T00:30:25.729Z,1.27
2022-08-29T00:32:53.033Z,1.60
2022-08-29T00:35:26.550Z,1.60
2022-08-29T00:37:54.778Z,1.70
2022-08-29T00:42:53.888Z,1.67
2022-08-29T00:45:21.280Z,1.40
2022-08-29T00:48:11.648Z,1.65
2022-08-29T00:50:38.346Z,1.98
2022-08-29T00:53:08.636Z,1.48
2022-08-29T00:55:37.425Z,1.90
2022-08-29T00:58:28.751Z,1.83
2022-08-29T01:00:55.594Z,1.70
2022-08-29T01:03:22.641Z,1.30
2022-08-29T01:05:49.458Z,1.45
2022-08-29T01:08:16.509Z,1.77
2022-08-29T01:11:02.079Z,1.60
2022-08-29T01:13:35.058Z,1.73
2022-08-29T01:16:03.483Z,1.60
2022-08-29T01:21:22.614Z,1.45
2022-08-29T01:26:28.965Z,1.73
2022-08-29T01:28:57.143Z,1.55
2022-08-29T01:31:46.108Z,1.90
2022-08-29T01:34:16.159Z,1.40
2022-08-29T01:36:55.514Z,1.83
2022-08-29T01:39:26.547Z,1.50
2022-08-29T01:41:54.688Z,1.70
2022-08-29T01:44:22.457Z,1.63
2022-08-29T01:46:52.208Z,1.52
2022-08-29T01:49:19.564Z,1.70
2022-08-29T01:51:46.378Z,1.40
2022-08-29T01:54:14.378Z,1.45
2022-08-29T01:56:44.895Z,1.75
2022-08-29T01:59:16.284Z,1.80
2022-08-29T02:02:07.905Z,1.52
2022-08-29T02:04:35.381Z,1.42
2022-08-29T02:07:02.422Z,1.27
2022-08-29T02:09:29.560Z,1.25
2022-08-29T02:11:58.233Z,1.45
2022-08-29T02:14:25.357Z,1.80
2022-08-29T02:16:52.322Z,1.30
2022-08-29T02:19:19.453Z,1.85
2022-08-29T02:21:46.345Z,1.88
2022-08-29T02:24:25.479Z,1.65
2022-08-29T02:26:53.800Z,1.33
2022-08-29T02:29:20.521Z,1.58
2022-08-29T02:31:47.702Z,1.38
2022-08-29T02:34:15.344Z,1.90
2022-08-29T02:36:44.527Z,1.85
2022-08-29T02:39:11.802Z,1.50
2022-08-29T02:41:38.820Z,1.70
2022-08-29T02:44:06.109Z,1.33
2022-08-29T02:46:33.372Z,1.52
2022-08-29T02:49:00.859Z,1.58
2022-08-29T02:51:31.138Z,1.48
2022-08-29T02:53:58.224Z,3.00
2022-08-29T02:56:25.324Z,5.72
2022-08-29T02:58:52.087Z,3.00
2022-08-29T03:01:21.357Z,1.90
2022-08-29T03:03:50.343Z,2.10
2022-08-29T03:06:18.720Z,1.77
2022-08-29T03:08:46.047Z,1.38
2022-08-29T03:11:13.851Z,1.80
2022-08-29T03:13:40.813Z,1.45
2022-08-29T03:16:09.038Z,1.37
2022-08-29T03:18:36.035Z,1.63
2022-08-29T03:21:02.830Z,1.80
2022-08-29T03:23:29.687Z,1.60
2022-08-29T03:25:57.785Z,1.60
2022-08-29T03:28:25.287Z,1.80
2022-08-29T03:30:52.131Z,1.50
2022-08-29T03:33:18.948Z,1.45
2022-08-29T03:35:45.658Z,1.40
2022-08-29T03:38:12.478Z,1.88
2022-08-29T03:40:42.369Z,1.95
2022-08-29T03:43:09.772Z,1.90
2022-08-29T03:45:36.614Z,1.67
2022-08-29T03:48:03.669Z,1.60
2022-08-29T03:50:30.501Z,1.52
2022-08-29T03:52:57.357Z,1.55
2022-08-29T03:55:24.551Z,1.50
2022-08-29T03:57:51.514Z,1.60
2022-08-29T04:00:19.866Z,1.70
2022-08-29T04:02:47.777Z,1.60
2022-08-29T04:05:17.070Z,1.55
2022-08-29T04:07:55.495Z,1.50
2022-08-29T04:12:54.762Z,1.40
2022-08-29T04:15:23.610Z,1.85
2022-08-29T04:20:26.047Z,1.70
2022-08-29T04:22:54.510Z,1.70
2022-08-29T04:27:49.714Z,1.63
2022-08-29T04:30:19.615Z,1.37
2022-08-29T04:32:46.467Z,1.75
2022-08-29T04:35:14.921Z,1.20
2022-08-29T04:37:42.360Z,1.83
2022-08-29T04:40:12.261Z,2.03
2022-08-29T04:42:39.261Z,1.70
2022-08-29T04:45:07.983Z,1.38
2022-08-29T04:47:38.729Z,1.58
2022-08-29T04:50:07.498Z,1.75
2022-08-29T04:52:34.191Z,1.63
2022-08-29T04:55:01.002Z,1.60
2022-08-29T04:57:27.820Z,1.60
2022-08-29T04:59:58.883Z,1.55
2022-08-29T05:02:27.852Z,1.67
2022-08-29T05:04:56.641Z,1.52
2022-08-29T05:07:27.571Z,1.92
2022-08-29T05:10:01.049Z,1.50
2022-08-29T05:12:30.392Z,1.38
2022-08-29T05:14:57.635Z,1.67
2022-08-29T05:17:24.813Z,1.38
2022-08-29T05:19:52.042Z,1.10
2022-08-29T05:22:20.266Z,1.35
2022-08-29T05:24:48.861Z,1.30
2022-08-29T05:27:18.902Z,1.67
2022-08-29T05:29:47.575Z,1.48
2022-08-29T05:32:14.951Z,1.27
2022-08-29T05:34:43.328Z,1.45
2022-08-29T05:37:13.078Z,1.30
2022-08-29T05:39:40.009Z,1.67
2022-08-29T05:42:08.413Z,1.48
2022-08-29T05:44:35.913Z,1.42
2022-08-29T05:47:05.160Z,1.45
2022-08-29T05:49:32.075Z,1.60
2022-08-29T05:52:00.693Z,1.50
2022-08-29T05:54:30.313Z,1.40
2022-08-29T05:56:57.345Z,1.85
2022-08-29T05:59:24.338Z,1.73
2022-08-29T06:01:51.352Z,1.38
2022-08-29T06:04:18.838Z,1.27
2022-08-29T06:06:45.713Z,1.33
2022-08-29T06:09:13.879Z,1.40
2022-08-29T06:11:40.663Z,1.55
2022-08-29T06:14:07.437Z,1.83
2022-08-29T06:16:34.385Z,1.35
2022-08-29T06:19:01.266Z,1.30
2022-08-29T06:21:28.168Z,1.58
2022-08-29T06:23:55.018Z,1.50
2022-08-29T06:26:21.758Z,1.52
2022-08-29T06:28:49.222Z,1.20
2022-08-29T06:31:20.970Z,1.73
2022-08-29T06:33:51.310Z,1.98
2022-08-29T06:36:18.237Z,1.60
2022-08-29T06:38:44.975Z,1.85
2022-08-29T06:41:14.799Z,1.63
2022-08-29T06:43:44.169Z,1.65
2022-08-29T06:46:23.981Z,1.50
2022-08-29T06:48:51.458Z,1.65
2022-08-29T06:51:18.369Z,1.85
2022-08-29T06:53:45.532Z,1.90
2022-08-29T06:56:12.469Z,2.85
2022-08-29T06:58:40.971Z,2.13
2022-08-29T07:03:42.276Z,2.53
2022-08-29T07:06:10.449Z,2.25
2022-08-29T07:08:42.144Z,3.03
2022-08-29T07:11:11.676Z,2.60
2022-08-29T07:13:41.944Z,2.33
2022-08-29T07:16:16.945Z,2.33
2022-08-29T07:18:44.985Z,2.90
2022-08-29T07:21:20.106Z,2.57
2022-08-29T07:23:48.435Z,2.80
2022-08-29T07:26:18.779Z,2.70
2022-08-29T07:28:50.581Z,2.67
2022-08-29T07:31:18.550Z,3.17
2022-08-29T07:33:45.450Z,2.88
2022-08-29T07:36:13.500Z,2.60
2022-08-29T07:38:40.322Z,2.85
2022-08-29T07:41:11.042Z,3.20
2022-08-29T07:43:37.994Z,3.13
2022-08-29T07:46:14.328Z,2.67
2022-08-29T07:48:42.696Z,3.10
2022-08-29T07:51:16.506Z,3.28
2022-08-29T07:53:44.141Z,3.08
2022-08-29T07:56:14.570Z,3.40
2022-08-29T07:58:42.877Z,2.80
2022-08-29T08:01:10.081Z,2.95
2022-08-29T08:03:47.744Z,2.80
2022-08-29T08:06:14.634Z,3.25
2022-08-29T08:08:41.941Z,2.92
2022-08-29T08:11:09.364Z,3.28
2022-08-29T08:13:36.922Z,3.35
2022-08-29T08:16:06.774Z,2.90
2022-08-29T08:18:37.270Z,3.28
2022-08-29T08:21:05.702Z,2.90
2022-08-29T08:26:00.914Z,3.80
2022-08-29T08:28:29.182Z,2.80
2022-08-29T08:30:56.592Z,2.90
2022-08-29T08:33:23.852Z,3.50
2022-08-29T08:35:51.043Z,3.17
2022-08-29T08:38:18.235Z,2.55
2022-08-29T08:41:04.869Z,3.10
2022-08-29T08:43:47.692Z,2.80
2022-08-29T08:46:17.561Z,3.53
2022-08-29T08:48:47.441Z,3.13
2022-08-29T08:51:21.718Z,3.60
2022-08-29T08:53:52.232Z,3.33
2022-08-29T08:56:37.719Z,2.67
2022-08-29T08:59:13.824Z,3.38
2022-08-29T09:01:45.247Z,3.30
2022-08-29T09:04:24.053Z,3.17
2022-08-29T09:07:19.662Z,2.90
2022-08-29T09:10:24.220Z,3.25
2022-08-29T09:13:30.459Z,2.88
2022-08-29T09:16:01.242Z,2.72
2022-08-29T09:18:36.637Z,2.90
2022-08-29T09:21:37.009Z,2.63
2022-08-29T09:23:59.857Z,2.55
2022-08-29T09:26:29.957Z,2.05
2022-08-29T09:28:58.930Z,2.35
2022-08-29T09:31:32.613Z,2.28
2022-08-29T09:34:00.689Z,2.83
2022-08-29T09:36:49.494Z,2.63
2022-08-29T09:39:29.712Z,2.58
2022-08-29T09:42:11.710Z,2.50
2022-08-29T09:44:39.200Z,2.78
2022-08-29T09:47:12.993Z,2.60
2022-08-29T09:49:42.200Z,2.30
2022-08-29T09:52:13.355Z,2.60
2022-08-29T09:54:41.346Z,2.33
2022-08-29T09:57:24.415Z,2.40
2022-08-29T10:00:14.674Z,2.75
2022-08-29T10:03:11.419Z,2.50
2022-08-29T10:05:45.981Z,2.30
2022-08-29T10:08:35.280Z,2.80
2022-08-29T10:11:05.777Z,2.60
2022-08-29T10:13:52.049Z,2.53
2022-08-29T10:16:27.913Z,2.72
2022-08-29T10:19:03.161Z,2.58
2022-08-29T10:21:38.440Z,2.60
2022-08-29T10:24:37.509Z,2.30
2022-08-29T10:27:10.453Z,2.30
2022-08-29T10:29:56.232Z,2.55
2022-08-29T10:32:50.199Z,2.50
2022-08-29T10:35:27.529Z,2.63
2022-08-29T10:38:29.867Z,2.65
2022-08-29T10:41:14.512Z,2.47
2022-08-29T10:44:18.714Z,2.90
2022-08-29T10:47:18.600Z,2.40
2022-08-29T10:50:42.906Z,2.25
2022-08-29T10:53:25.364Z,2.70
2022-08-29T10:56:06.408Z,2.30
2022-08-29T10:58:51.709Z,2.30
2022-08-29T11:01:25.320Z,2.10
2022-08-29T11:04:04.066Z,1.88
2022-08-29T11:09:22.379Z,2.22
2022-08-29T11:12:18.062Z,2.08
2022-08-29T11:15:12.223Z,2.13
2022-08-29T11:17:42.637Z,1.92
2022-08-29T11:20:21.747Z,2.22
2022-08-29T11:23:12.848Z,2.17
2022-08-29T11:25:41.971Z,1.73
2022-08-29T11:28:27.688Z,2.15
2022-08-29T11:31:12.588Z,2.22
2022-08-29T11:33:58.302Z,2.10
2022-08-29T11:36:44.142Z,2.55
2022-08-29T11:39:19.796Z,2.17
2022-08-29T11:41:49.204Z,1.85
2022-08-29T11:44:32.934Z,1.60
2022-08-29T11:47:00.077Z,2.22
2022-08-29T11:49:49.147Z,2.10
2022-08-29T11:52:22.457Z,1.80
2022-08-29T11:54:54.320Z,1.88
2022-08-29T11:57:20.997Z,2.22
2022-08-29T11:59:56.747Z,1.75
2022-08-29T12:02:32.185Z,1.88
2022-08-29T12:05:00.091Z,1.90
2022-08-29T12:07:49.415Z,2.15
2022-08-29T12:10:23.507Z,2.17
2022-08-29T12:12:51.836Z,1.90
2022-08-29T12:15:30.540Z,2.13
2022-08-29T12:18:12.451Z,2.35
2022-08-29T12:20:47.997Z,2.15
2022-08-29T12:23:14.974Z,1.77
2022-08-29T12:26:21.471Z,1.90
2022-08-29T12:28:57.788Z,1.80
2022-08-29T12:32:18.236Z,1.60
2022-08-29T12:35:08.883Z,1.65
2022-08-29T12:38:00.521Z,1.80
2022-08-29T12:40:53.372Z,2.40
2022-08-29T12:43:29.677Z,2.10
2022-08-29T12:45:56.892Z,2.33
2022-08-29T12:48:40.114Z,1.80
2022-08-29T12:51:07.257Z,1.70
2022-08-29T12:53:35.074Z,1.52
2022-08-29T12:56:17.149Z,1.95
2022-08-29T12:58:52.669Z,2.30
2022-08-29T13:01:39.786Z,1.80
2022-08-29T13:04:14.744Z,1.90
2022-08-29T13:06:59.111Z,1.98
2022-08-29T13:10:01.628Z,1.80
2022-08-29T13:12:32.035Z,1.92
2022-08-29T13:15:07.471Z,2.00
2022-08-29T13:17:42.465Z,2.10
2022-08-29T13:20:43.264Z,1.73
2022-08-29T13:23:32.936Z,1.40
2022-08-29T13:26:14.618Z,1.70
2022-08-29T13:28:46.108Z,2.05
2022-08-29T13:31:15.944Z,2.42
2022-08-29T13:33:45.731Z,1.50
2022-08-29T13:36:45.116Z,1.92
2022-08-29T13:39:18.123Z,1.80
2022-08-29T13:41:51.501Z,1.70
2022-08-29T13:44:24.588Z,1.48
2022-08-29T13:46:53.103Z,1.55
2022-08-29T13:49:22.833Z,1.75
2022-08-29T13:51:50.187Z,1.83
2022-08-29T13:54:17.320Z,1.88
2022-08-29T13:56:48.142Z,2.00
2022-08-29T13:59:19.194Z,1.77
2022-08-29T14:04:41.671Z,1.77
2022-08-29T14:07:13.155Z,1.70
2022-08-29T14:09:43.626Z,1.98
2022-08-29T14:12:10.333Z,1.90
2022-08-29T14:14:37.007Z,2.20
2022-08-29T14:17:03.934Z,2.22
2022-08-29T14:19:31.140Z,2.30
2022-08-29T14:22:02.063Z,1.70
2022-08-29T14:24:30.763Z,1.88
2022-08-29T14:27:01.674Z,1.83
2022-08-29T14:29:33.445Z,1.70
2022-08-29T14:32:03.043Z,1.80
2022-08-29T14:34:32.356Z,1.95
2022-08-29T14:37:00.889Z,2.13
2022-08-29T14:39:28.240Z,1.90
2022-08-29T14:41:55.179Z,1.95
2022-08-29T14:44:22.353Z,2.13
2022-08-29T14:46:49.648Z,1.45
2022-08-29T14:49:16.542Z,2.47
2022-08-29T14:51:44.425Z,2.00
2022-08-29T14:54:11.820Z,2.00
2022-08-29T14:56:49.219Z,2.00
2022-08-29T14:59:22.329Z,2.35
2022-08-29T15:01:54.175Z,2.13
2022-08-29T15:04:35.622Z,1.70
2022-08-29T15:07:10.273Z,1.45
2022-08-29T15:09:39.065Z,1.67
2022-08-29T15:12:06.161Z,1.83
2022-08-29T15:14:34.561Z,2.03
2022-08-29T15:17:02.223Z,1.58
2022-08-29T15:22:16.922Z,1.50
2022-08-29T15:24:43.720Z,1.52
2022-08-29T15:27:11.396Z,1.77
2022-08-29T15:29:40.747Z,1.48
2022-08-29T15:32:08.425Z,2.00
2022-08-29T15:34:36.329Z,1.75
2022-08-29T15:37:03.235Z,1.67
2022-08-29T15:39:30.007Z,1.58
2022-08-29T15:41:58.946Z,1.48
2022-08-29T15:44:26.915Z,1.55
2022-08-29T15:46:56.882Z,1.50
2022-08-29T15:49:26.370Z,1.75
2022-08-29T15:51:53.948Z,2.03
2022-08-29T15:54:22.095Z,1.80
2022-08-29T15:56:49.468Z,1.73
2022-08-29T15:59:18.105Z,1.70
2022-08-29T16:01:48.682Z,1.77
2022-08-29T16:04:18.522Z,1.52
2022-08-29T16:06:45.659Z,2.28
2022-08-29T16:09:15.713Z,1.88
2022-08-29T16:11:47.754Z,2.15
2022-08-29T16:17:03.141Z,1.58
2022-08-29T16:19:32.787Z,1.98
2022-08-29T16:22:04.436Z,1.58
2022-08-29T16:24:34.854Z,1.90
2022-08-29T16:27:01.814Z,1.73
2022-08-29T16:29:28.771Z,1.60
2022-08-29T16:31:58.423Z,1.50
2022-08-29T16:34:26.719Z,1.90
2022-08-29T16:37:00.937Z,1.70
2022-08-29T16:39:28.724Z,1.73
2022-08-29T16:41:55.470Z,1.92
2022-08-29T16:44:22.676Z,1.65
2022-08-29T16:46:49.540Z,2.65
2022-08-29T16:49:16.428Z,1.67
2022-08-29T16:51:43.155Z,2.10
2022-08-29T16:54:10.031Z,1.70
2022-08-29T16:56:36.853Z,2.03
2022-08-29T16:59:04.430Z,2.10
2022-08-29T17:01:42.830Z,2.00
2022-08-29T17:04:13.382Z,1.80
2022-08-29T17:06:40.819Z,2.35
2022-08-29T17:09:09.032Z,2.33
2022-08-29T17:14:03.662Z,2.10
2022-08-29T17:16:31.206Z,2.50
2022-08-29T17:18:58.200Z,1.90
2022-08-29T17:21:28.154Z,2.60
2022-08-29T17:23:55.406Z,1.95
2022-08-29T17:26:22.884Z,2.58
2022-08-29T17:28:51.675Z,2.13
2022-08-29T17:31:18.617Z,2.45
2022-08-29T17:33:46.415Z,2.40
2022-08-29T17:36:14.392Z,1.98
2022-08-29T17:38:44.948Z,2.72
2022-08-29T17:41:17.567Z,2.80
2022-08-29T17:43:47.336Z,2.83
2022-08-29T17:46:16.788Z,2.53
2022-08-29T17:48:44.610Z,3.10
2022-08-29T17:51:12.143Z,2.60
2022-08-29T17:53:39.905Z,2.58
2022-08-29T17:56:20.856Z,3.13
2022-08-29T17:58:48.111Z,3.55
2022-08-29T18:01:16.866Z,2.92
2022-08-29T18:03:45.381Z,3.17
2022-08-29T18:06:14.625Z,2.90
2022-08-29T18:08:48.102Z,2.85
2022-08-29T18:11:17.192Z,3.47
2022-08-29T18:13:44.987Z,3.35
2022-08-29T18:16:12.488Z,3.10
2022-08-29T18:18:41.292Z,3.13
2022-08-29T18:21:08.883Z,2.97
2022-08-29T18:23:36.291Z,3.37
2022-08-29T18:26:03.866Z,3.40
2022-08-29T18:28:31.203Z,3.40
2022-08-29T18:30:58.694Z,2.88
2022-08-29T18:33:38.727Z,3.40
2022-08-29T18:36:13.356Z,3.25
2022-08-29T18:38:40.394Z,3.25
2022-08-29T18:41:07.673Z,3.65
2022-08-29T18:43:34.847Z,3.58
2022-08-29T18:46:03.741Z,2.92
2022-08-29T18:48:32.442Z,3.10
2022-08-29T18:50:59.743Z,3.28
2022-08-29T18:53:28.185Z,3.42
2022-08-29T18:58:25.269Z,4.05
2022-08-29T19:00:52.816Z,3.40
2022-08-29T19:03:20.264Z,3.40
2022-08-29T19:05:49.699Z,3.00
2022-08-29T19:08:19.666Z,3.28
2022-08-29T19:10:47.387Z,2.95
2022-08-29T19:13:15.501Z,3.50
2022-08-29T19:15:45.248Z,3.50
2022-08-29T19:18:14.328Z,3.17
2022-08-29T19:21:00.425Z,3.33
2022-08-29T19:23:27.653Z,3.30
2022-08-29T19:25:54.648Z,2.88
2022-08-29T19:28:22.743Z,2.80
2022-08-29T19:30:50.441Z,2.47
2022-08-29T19:33:18.905Z,2.63
2022-08-29T19:38:16.413Z,2.70
2022-08-29T19:40:43.420Z,2.47
2022-08-29T19:43:14.210Z,3.00
2022-08-29T19:45:42.538Z,2.13
2022-08-29T19:50:59.044Z,2.60
2022-08-29T19:53:27.210Z,2.65
2022-08-29T19:55:55.657Z,2.75
2022-08-29T19:58:31.505Z,2.80
2022-08-29T20:01:03.090Z,3.22
2022-08-29T20:03:30.078Z,2.63
2022-08-29T20:05:57.219Z,3.20
2022-08-29T20:08:24.176Z,2.80
2022-08-29T20:10:51.273Z,2.55
2022-08-29T20:13:19.210Z,2.67
2022-08-29T20:15:46.013Z,2.47
2022-08-29T20:18:13.057Z,2.72
2022-08-29T20:20:39.915Z,2.53
2022-08-29T20:23:07.934Z,2.50
2022-08-29T20:25:35.643Z,2.58
2022-08-29T20:28:03.843Z,2.50
2022-08-29T20:30:33.767Z,2.65
2022-08-29T20:33:01.013Z,2.67
2022-08-29T20:35:46.566Z,5.25
2022-08-29T20:38:13.375Z,2.80
2022-08-29T20:40:46.708Z,2.65
2022-08-29T20:43:15.301Z,2.40
2022-08-29T20:45:43.556Z,2.50
2022-08-29T20:48:11.635Z,3.05
2022-08-29T20:50:38.671Z,2.63
2022-08-29T20:53:06.192Z,2.47
2022-08-29T20:55:33.076Z,2.80
2022-08-29T20:57:59.836Z,2.67
2022-08-29T21:00:26.620Z,2.72
2022-08-29T21:03:12.041Z,2.80
2022-08-29T21:05:45.574Z,2.35
2022-08-29T21:08:19.291Z,2.85
2022-08-29T21:10:47.667Z,2.40
2022-08-29T21:15:42.334Z,2.33
2022-08-29T21:18:11.174Z,2.50
2022-08-29T21:20:53.514Z,2.70
2022-08-29T21:23:21.448Z,2.15
2022-08-29T21:25:53.484Z,2.83
2022-08-29T21:28:20.225Z,2.38
2022-08-29T21:30:46.982Z,3.40
2022-08-29T21:33:13.734Z,2.55
2022-08-29T21:35:40.931Z,2.80
2022-08-29T21:38:08.786Z,2.47
2022-08-29T21:40:36.904Z,1.95
2022-08-29T21:43:17.079Z,2.08
2022-08-29T21:45:43.947Z,2.15
2022-08-29T21:48:10.635Z,2.45
2022-08-29T21:50:38.427Z,1.80
2022-08-29T21:53:05.701Z,2.38
2022-08-29T21:55:33.023Z,2.30
2022-08-29T21:58:01.140Z,2.55
2022-08-29T22:00:32.604Z,2.65
2022-08-29T22:03:05.684Z,2.35
2022-08-29T22:05:32.845Z,2.47
2022-08-29T22:08:02.882Z,2.35
2022-08-29T22:10:33.263Z,2.45
2022-08-29T22:13:00.520Z,2.75
2022-08-29T22:15:46.636Z,2.53
2022-08-29T22:18:16.717Z,2.70
2022-08-29T22:20:46.598Z,2.42
2022-08-29T22:23:15.658Z,2.40
2022-08-29T22:25:47.538Z,2.35
2022-08-29T22:28:14.246Z,2.17
2022-08-29T22:30:41.067Z,2.45
2022-08-29T22:33:12.915Z,2.78
2022-08-29T22:35:43.536Z,1.80
2022-08-29T22:38:10.377Z,2.30
2022-08-29T22:40:37.237Z,2.28
2022-08-29T22:43:03.987Z,2.53
2022-08-29T22:45:30.685Z,2.63
2022-08-29T22:47:57.514Z,2.35
2022-08-29T22:50:25.258Z,2.85
2022-08-29T22:52:55.877Z,2.72
2022-08-29T22:57:49.508Z,2.67
2022-08-29T23:00:19.547Z,2.35
2022-08-29T23:02:47.118Z,2.70
2022-08-29T23:05:14.748Z,2.58
2022-08-29T23:07:41.554Z,2.50
2022-08-29T23:10:10.056Z,2.13
2022-08-29T23:12:37.107Z,2.67
2022-08-29T23:15:11.525Z,2.67
2022-08-29T23:17:38.317Z,2.63
2022-08-29T23:20:07.013Z,2.60
2022-08-29T23:22:33.907Z,2.60
2022-08-29T23:25:01.020Z,2.40
2022-08-29T23:27:30.178Z,2.83
2022-08-29T23:29:58.384Z,2.85
2022-08-29T23:32:25.409Z,2.80
2022-08-29T23:34:52.310Z,2.83
2022-08-29T23:37:19.051Z,2.80
2022-08-29T23:39:46.708Z,2.92
2022-08-29T23:42:13.491Z,3.22
2022-08-29T23:44:40.191Z,2.65
2022-08-29T23:47:08.431Z,2.75
2022-08-29T23:52:02.142Z,3.35
2022-08-29T23:54:31.242Z,2.40
2022-08-29T23:56:58.053Z,3.20
2022-08-29T23:59:43.380Z,2.80
